Time;durP1;ratioP1;P1;durP2;ratioP2;P2;SDS_P1;SDS_P2;PMS_P1;PMS_P2;Temp;Humidity;BMP_temperature;BMP_pressure;BME280_temperature;BME280_humidity;BME280_pressure;Samples;Min_cycle;Max_cycle;Signal;HPM_P1;HPM_P2
2022/03/01 00:00:10;;;;;;;8.17;4.60;;;;;;;;;;5030811;28;20585;-81
2022/03/01 00:02:38;;;;;;;5.87;5.10;;;;;;;;;;5031076;28;20191;-81
2022/03/01 00:05:06;;;;;;;5.10;4.43;;;;;;;;;;5031187;28;20199;-81
2022/03/01 00:07:34;;;;;;;5.73;4.60;;;;;;;;;;5030739;28;20206;-82
2022/03/01 00:10:01;;;;;;;5.10;4.10;;;;;;;;;;5031005;28;20218;-81
2022/03/01 00:12:28;;;;;;;5.30;4.13;;;;;;;;;;5030845;28;20686;-81
2022/03/01 00:14:55;;;;;;;5.67;5.17;;;;;;;;;;5031357;28;20221;-81
2022/03/01 00:17:24;;;;;;;5.20;4.70;;;;;;;;;;5030777;28;20206;-81
2022/03/01 00:19:52;;;;;;;5.17;4.50;;;;;;;;;;5030720;28;20241;-81
2022/03/01 00:22:19;;;;;;;6.07;5.37;;;;;;;;;;5030664;28;20199;-81
2022/03/01 00:24:46;;;;;;;5.37;4.87;;;;;;;;;;5276386;22;21209;-80
2022/03/01 00:27:14;;;;;;;5.47;4.97;;;;;;;;;;5073750;28;20683;-80
2022/03/01 00:29:41;;;;;;;5.70;4.97;;;;;;;;;;5073683;28;20267;-80
2022/03/01 00:32:10;;;;;;;5.07;4.57;;;;;;;;;;5073809;28;20246;-80
2022/03/01 00:34:39;;;;;;;6.80;5.53;;;;;;;;;;5073921;28;20197;-80
2022/03/01 00:37:06;;;;;;;5.30;4.80;;;;;;;;;;5074015;28;20224;-81
2022/03/01 00:39:34;;;;;;;5.70;5.20;;;;;;;;;;5073464;28;20189;-81
2022/03/01 00:42:01;;;;;;;5.20;4.00;;;;;;;;;;5073683;28;20201;-81
2022/03/01 00:44:28;;;;;;;4.87;4.47;;;;;;;;;;5073918;28;20279;-81
2022/03/01 00:46:55;;;;;;;5.20;4.70;;;;;;;;;;5073430;28;20197;-80
2022/03/01 00:49:23;;;;;;;5.00;4.50;;;;;;;;;;5070971;28;20669;-81
2022/03/01 00:51:51;;;;;;;5.63;4.67;;;;;;;;;;5072708;28;20236;-81
2022/03/01 00:54:19;;;;;;;8.73;6.57;;;;;;;;;;5073384;28;20687;-81
2022/03/01 00:56:46;;;;;;;5.73;5.10;;;;;;;;;;5073190;28;20677;-81
2022/03/01 00:59:13;;;;;;;7.43;5.63;;;;;;;;;;5073610;28;20197;-82
2022/03/01 01:01:40;;;;;;;6.17;5.40;;;;;;;;;;5073119;28;20232;-82
2022/03/01 01:04:08;;;;;;;5.57;5.07;;;;;;;;;;5073189;28;20211;-82
2022/03/01 01:06:35;;;;;;;4.80;4.40;;;;;;;;;;5073005;28;20270;-82
2022/03/01 01:09:04;;;;;;;4.83;4.37;;;;;;;;;;5073062;28;20264;-82
2022/03/01 01:11:31;;;;;;;6.03;5.20;;;;;;;;;;5071617;28;20200;-82
2022/03/01 01:13:59;;;;;;;7.07;5.33;;;;;;;;;;5073289;28;20855;-81
2022/03/01 01:16:26;;;;;;;5.93;5.33;;;;;;;;;;5072858;28;20208;-82
2022/03/01 01:18:54;;;;;;;6.00;5.40;;;;;;;;;;5073174;28;20196;-82
2022/03/01 01:21:21;;;;;;;5.87;4.90;;;;;;;;;;5072542;28;20197;-81
2022/03/01 01:23:49;;;;;;;6.70;6.07;;;;;;;;;;5072985;28;20278;-81
2022/03/01 01:26:17;;;;;;;5.90;5.30;;;;;;;;;;5072464;28;20294;-81
2022/03/01 01:28:45;;;;;;;5.13;4.63;;;;;;;;;;5072619;28;20697;-82
2022/03/01 01:31:12;;;;;;;5.60;5.00;;;;;;;;;;5072478;28;20665;-82
2022/03/01 01:33:39;;;;;;;6.77;5.43;;;;;;;;;;5072658;28;20225;-81
2022/03/01 01:36:07;;;;;;;6.70;5.70;;;;;;;;;;5072818;28;20331;-82
2022/03/01 01:38:34;;;;;;;6.37;5.70;;;;;;;;;;5072412;28;20196;-82
2022/03/01 01:41:01;;;;;;;6.13;5.53;;;;;;;;;;5072343;28;20577;-82
2022/03/01 01:43:30;;;;;;;6.63;6.00;;;;;;;;;;5072785;28;20228;-82
2022/03/01 01:45:57;;;;;;;6.50;5.87;;;;;;;;;;5072309;28;20216;-81
2022/03/01 01:48:25;;;;;;;7.50;5.53;;;;;;;;;;5072144;28;20204;-82
2022/03/01 01:50:52;;;;;;;7.10;6.40;;;;;;;;;;5072783;28;20193;-81
2022/03/01 01:53:20;;;;;;;6.37;5.77;;;;;;;;;;5072249;28;20217;-81
2022/03/01 01:55:47;;;;;;;6.33;5.73;;;;;;;;;;5072761;28;20222;-82
2022/03/01 01:58:16;;;;;;;5.80;5.20;;;;;;;;;;5072439;28;20193;-81
2022/03/01 02:00:45;;;;;;;5.73;5.23;;;;;;;;;;5072078;28;20208;-82
2022/03/01 02:03:12;;;;;;;5.83;5.23;;;;;;;;;;5072187;28;20795;-81
2022/03/01 02:05:40;;;;;;;6.80;6.10;;;;;;;;;;5072285;28;20212;-82
2022/03/01 02:08:07;;;;;;;5.43;4.90;;;;;;;;;;5072359;28;20573;-81
2022/03/01 02:10:34;;;;;;;5.47;4.93;;;;;;;;;;5071884;28;20784;-81
2022/03/01 02:13:02;;;;;;;6.17;5.57;;;;;;;;;;5072111;28;20292;-82
2022/03/01 02:15:29;;;;;;;6.33;5.73;;;;;;;;;;5072605;28;20220;-81
2022/03/01 02:17:58;;;;;;;6.87;4.97;;;;;;;;;;5072018;28;20194;-81
2022/03/01 02:20:29;;;;;;;5.60;5.10;;;;;;;;;;5071852;28;20193;-81
2022/03/01 02:22:57;;;;;;;6.07;5.47;;;;;;;;;;5071708;28;20197;-81
2022/03/01 02:25:25;;;;;;;5.80;5.20;;;;;;;;;;5071946;28;20228;-81
2022/03/01 02:27:52;;;;;;;6.10;5.50;;;;;;;;;;5071811;28;20250;-81
2022/03/01 02:30:20;;;;;;;6.40;5.00;;;;;;;;;;5071646;28;20225;-81
2022/03/01 02:32:47;;;;;;;7.87;4.83;;;;;;;;;;5072378;28;20229;-81
2022/03/01 02:35:14;;;;;;;5.40;4.90;;;;;;;;;;5071790;28;20707;-81
2022/03/01 02:37:43;;;;;;;5.13;4.67;;;;;;;;;;5071701;28;20193;-80
2022/03/01 02:40:11;;;;;;;7.43;5.07;;;;;;;;;;5071893;28;20288;-81
2022/03/01 02:42:39;;;;;;;6.23;5.63;;;;;;;;;;5071815;28;20289;-81
2022/03/01 02:45:08;;;;;;;5.80;5.30;;;;;;;;;;5071866;28;20303;-81
2022/03/01 02:47:35;;;;;;;5.30;4.80;;;;;;;;;;5071315;28;20740;-81
2022/03/01 02:50:03;;;;;;;5.43;4.77;;;;;;;;;;5069765;28;20735;-80
2022/03/01 02:52:30;;;;;;;5.80;5.30;;;;;;;;;;5071788;28;20254;-81
2022/03/01 02:54:59;;;;;;;5.23;4.73;;;;;;;;;;5071842;28;20553;-81
2022/03/01 02:57:27;;;;;;;5.70;5.20;;;;;;;;;;5071747;28;20200;-81
2022/03/01 02:59:55;;;;;;;4.83;4.37;;;;;;;;;;5071314;28;20201;-81
2022/03/01 03:02:22;;;;;;;4.87;4.37;;;;;;;;;;5071664;28;20659;-81
2022/03/01 03:04:50;;;;;;;5.23;4.57;;;;;;;;;;5071535;28;20280;-80
2022/03/01 03:07:17;;;;;;;4.63;4.17;;;;;;;;;;5071344;28;20243;-80
2022/03/01 03:09:44;;;;;;;5.00;4.50;;;;;;;;;;5071638;28;20319;-81
2022/03/01 03:12:13;;;;;;;5.10;4.60;;;;;;;;;;5071461;28;20255;-81
2022/03/01 03:14:40;;;;;;;5.70;5.17;;;;;;;;;;5071309;28;20284;-81
2022/03/01 03:17:08;;;;;;;5.53;5.03;;;;;;;;;;5070968;28;20201;-81
2022/03/01 03:19:36;;;;;;;7.70;6.93;;;;;;;;;;5071021;28;20197;-81
2022/03/01 03:22:05;;;;;;;6.70;5.53;;;;;;;;;;5053037;28;20256;-81
2022/03/01 03:24:32;;;;;;;5.20;4.70;;;;;;;;;;5064511;28;20292;-81
2022/03/01 03:27:02;;;;;;;5.60;5.00;;;;;;;;;;5070714;28;20201;-79
2022/03/01 03:29:30;;;;;;;5.27;4.80;;;;;;;;;;5071148;28;20217;-80
2022/03/01 03:31:58;;;;;;;5.73;4.90;;;;;;;;;;5071588;28;20212;-81
2022/03/01 03:34:26;;;;;;;4.87;4.47;;;;;;;;;;5071944;28;20193;-81
2022/03/01 03:36:53;;;;;;;4.83;4.43;;;;;;;;;;5074572;28;20201;-81
2022/03/01 03:39:20;;;;;;;5.30;4.80;;;;;;;;;;5074813;28;20684;-80
2022/03/01 03:41:48;;;;;;;5.03;4.63;;;;;;;;;;5074866;28;20201;-81
2022/03/01 03:44:15;;;;;;;5.80;5.17;;;;;;;;;;5074685;28;20201;-81
2022/03/01 03:46:44;;;;;;;5.53;4.93;;;;;;;;;;5074707;28;20232;-82
2022/03/01 03:49:11;;;;;;;5.47;4.97;;;;;;;;;;5074630;28;20648;-80
2022/03/01 03:51:39;;;;;;;4.67;4.23;;;;;;;;;;5074353;28;20201;-80
2022/03/01 03:54:06;;;;;;;5.53;5.03;;;;;;;;;;5074462;28;20240;-80
2022/03/01 03:56:33;;;;;;;5.23;4.83;;;;;;;;;;5074206;28;20197;-81
2022/03/01 03:59:00;;;;;;;5.67;5.17;;;;;;;;;;5074418;28;20708;-81
2022/03/01 04:01:27;;;;;;;5.73;4.80;;;;;;;;;;5073728;28;20954;-81
2022/03/01 04:03:58;;;;;;;5.63;4.97;;;;;;;;;;5074497;28;20205;-80
2022/03/01 04:06:26;;;;;;;6.00;5.10;;;;;;;;;;5074466;28;20197;-81
2022/03/01 04:08:53;;;;;;;5.90;5.30;;;;;;;;;;5074450;28;20205;-80
2022/03/01 04:11:20;;;;;;;6.10;5.37;;;;;;;;;;5074385;28;20216;-81
2022/03/01 04:13:47;;;;;;;6.80;5.60;;;;;;;;;;5074122;28;20193;-80
2022/03/01 04:16:15;;;;;;;7.20;6.27;;;;;;;;;;5074194;28;20412;-80
2022/03/01 04:18:42;;;;;;;6.73;5.90;;;;;;;;;;5072944;28;20231;-80
2022/03/01 04:21:10;;;;;;;6.63;6.00;;;;;;;;;;5073270;28;20201;-80
2022/03/01 04:23:38;;;;;;;6.87;5.90;;;;;;;;;;5073504;28;20197;-80
2022/03/01 04:26:05;;;;;;;7.43;6.73;;;;;;;;;;5072753;28;20241;-80
2022/03/01 04:28:32;;;;;;;6.93;6.27;;;;;;;;;;5073172;28;20288;-80
2022/03/01 04:30:59;;;;;;;7.30;6.60;;;;;;;;;;5072997;28;20272;-80
2022/03/01 04:33:27;;;;;;;7.30;6.60;;;;;;;;;;5072837;28;20201;-79
2022/03/01 04:35:54;;;;;;;7.00;6.33;;;;;;;;;;5073068;28;20286;-79
2022/03/01 04:38:25;;;;;;;6.67;6.07;;;;;;;;;;5065224;28;20307;-80
2022/03/01 04:40:52;;;;;;;7.90;7.00;;;;;;;;;;5056147;28;20194;-79
2022/03/01 04:43:20;;;;;;;7.40;6.67;;;;;;;;;;5067677;28;20217;-80
2022/03/01 04:45:47;;;;;;;7.67;6.77;;;;;;;;;;5072785;28;20731;-81
2022/03/01 04:48:14;;;;;;;8.93;7.53;;;;;;;;;;5070506;28;20232;-80
2022/03/01 04:50:41;;;;;;;8.33;6.77;;;;;;;;;;5072998;28;20217;-80
2022/03/01 04:53:09;;;;;;;7.20;6.50;;;;;;;;;;5072077;28;20201;-81
2022/03/01 04:55:37;;;;;;;7.97;7.17;;;;;;;;;;5072750;28;20203;-81
2022/03/01 04:58:05;;;;;;;8.00;6.77;;;;;;;;;;5072334;28;20207;-80
2022/03/01 05:00:32;;;;;;;7.27;6.60;;;;;;;;;;5072858;28;20622;-80
2022/03/01 05:03:00;;;;;;;6.93;6.23;;;;;;;;;;5072298;28;20232;-80
2022/03/01 05:05:27;;;;;;;7.00;6.30;;;;;;;;;;5072106;28;20201;-80
2022/03/01 05:07:55;;;;;;;9.90;8.00;;;;;;;;;;5071939;28;20662;-80
2022/03/01 05:10:22;;;;;;;7.63;6.70;;;;;;;;;;5071638;28;20693;-81
2022/03/01 05:12:53;;;;;;;10.50;8.70;;;;;;;;;;5071857;28;20226;-81
2022/03/01 05:15:21;;;;;;;8.97;7.40;;;;;;;;;;5071934;28;20185;-81
2022/03/01 05:17:49;;;;;;;7.47;6.30;;;;;;;;;;5072192;28;20642;-81
2022/03/01 05:20:17;;;;;;;9.63;8.63;;;;;;;;;;5072556;28;20292;-82
2022/03/01 05:22:45;;;;;;;8.70;7.63;;;;;;;;;;5071998;28;20232;-81
2022/03/01 05:25:15;;;;;;;8.63;7.73;;;;;;;;;;5072402;28;20224;-81
2022/03/01 05:27:44;;;;;;;8.53;7.23;;;;;;;;;;5072149;28;20291;-81
2022/03/01 05:30:15;;;;;;;10.40;7.37;;;;;;;;;;5073149;28;20243;-81
2022/03/01 05:32:46;;;;;;;9.20;8.30;;;;;;;;;;5072808;28;20223;-81
2022/03/01 05:35:14;;;;;;;7.77;7.03;;;;;;;;;;5072702;28;20586;-82
2022/03/01 05:37:42;;;;;;;8.13;6.37;;;;;;;;;;5073063;28;20200;-81
2022/03/01 05:40:12;;;;;;;7.63;6.83;;;;;;;;;;5073266;28;20232;-81
2022/03/01 05:42:39;;;;;;;8.50;7.00;;;;;;;;;;5071505;28;20591;-81
2022/03/01 05:45:07;;;;;;;7.37;6.67;;;;;;;;;;5068912;28;20206;-81
2022/03/01 05:47:36;;;;;;;7.27;6.53;;;;;;;;;;5052294;28;20632;-81
2022/03/01 05:50:04;;;;;;;7.27;6.50;;;;;;;;;;5052938;28;20257;-81
2022/03/01 05:52:32;;;;;;;7.53;6.73;;;;;;;;;;5053196;28;20240;-81
2022/03/01 05:54:59;;;;;;;7.03;6.40;;;;;;;;;;5073049;28;20609;-82
2022/03/01 05:57:28;;;;;;;7.30;6.63;;;;;;;;;;5071739;28;20193;-82
2022/03/01 05:59:56;;;;;;;7.73;6.97;;;;;;;;;;5072844;28;20197;-82
2022/03/01 06:02:23;;;;;;;7.33;6.63;;;;;;;;;;5072887;28;20193;-82
2022/03/01 06:04:52;;;;;;;8.37;7.17;;;;;;;;;;5082795;28;20221;-82
2022/03/01 06:07:19;;;;;;;12.23;9.30;;;;;;;;;;5082958;28;20205;-82
2022/03/01 06:09:47;;;;;;;10.57;9.47;;;;;;;;;;5084945;28;20260;-82
2022/03/01 06:12:14;;;;;;;9.23;8.27;;;;;;;;;;5080649;28;20197;-81
2022/03/01 06:14:41;;;;;;;8.63;7.80;;;;;;;;;;5079538;28;20200;-81
2022/03/01 06:17:09;;;;;;;15.10;11.87;;;;;;;;;;5054004;28;20620;-82
2022/03/01 06:19:36;;;;;;;12.70;11.40;;;;;;;;;;5052312;28;20678;-81
2022/03/01 06:22:06;;;;;;;10.23;9.20;;;;;;;;;;5052701;28;20582;-81
2022/03/01 06:24:33;;;;;;;10.63;9.23;;;;;;;;;;5052533;28;20679;-81
2022/03/01 06:27:01;;;;;;;9.77;8.47;;;;;;;;;;5052219;28;20200;-81
2022/03/01 06:29:28;;;;;;;9.33;8.27;;;;;;;;;;5052585;28;20198;-82
2022/03/01 06:31:55;;;;;;;11.60;8.50;;;;;;;;;;5051821;28;20349;-82
2022/03/01 06:34:23;;;;;;;12.03;9.17;;;;;;;;;;5052306;28;20190;-81
2022/03/01 06:36:50;;;;;;;9.37;8.20;;;;;;;;;;5051944;28;20208;-82
2022/03/01 06:39:19;;;;;;;10.43;8.97;;;;;;;;;;5067926;28;20295;-81
2022/03/01 06:41:46;;;;;;;7.87;7.07;;;;;;;;;;5071890;28;20240;-81
2022/03/01 06:44:13;;;;;;;9.47;8.27;;;;;;;;;;5072534;28;20228;-82
2022/03/01 06:46:40;;;;;;;14.60;9.63;;;;;;;;;;5071504;28;20736;-82
2022/03/01 06:49:08;;;;;;;17.50;12.50;;;;;;;;;;5072442;28;20300;-82
2022/03/01 06:51:35;;;;;;;12.43;10.27;;;;;;;;;;5072080;28;20304;-81
2022/03/01 06:54:02;;;;;;;12.10;9.83;;;;;;;;;;5071781;28;20284;-81
2022/03/01 06:56:31;;;;;;;7.80;6.97;;;;;;;;;;5071826;28;20197;-82
2022/03/01 06:58:58;;;;;;;9.33;8.40;;;;;;;;;;5071835;28;20193;-82
2022/03/01 07:01:26;;;;;;;13.07;11.33;;;;;;;;;;5071639;28;20207;-81
2022/03/01 07:03:53;;;;;;;9.63;8.43;;;;;;;;;;5071801;28;20200;-82
2022/03/01 07:06:20;;;;;;;9.93;7.93;;;;;;;;;;5071396;28;20228;-81
2022/03/01 07:08:49;;;;;;;9.00;7.90;;;;;;;;;;5071620;28;20254;-81
2022/03/01 07:11:16;;;;;;;7.90;6.90;;;;;;;;;;5075112;28;20273;-81
2022/03/01 07:13:45;;;;;;;8.23;6.97;;;;;;;;;;5075329;28;20193;-82
2022/03/01 07:16:12;;;;;;;8.30;7.13;;;;;;;;;;5075472;28;20247;-81
2022/03/01 07:18:40;;;;;;;7.97;7.03;;;;;;;;;;5075538;28;20627;-81
2022/03/01 07:21:07;;;;;;;8.30;7.30;;;;;;;;;;5075192;28;20197;-81
2022/03/01 07:23:34;;;;;;;11.00;9.87;;;;;;;;;;5075013;28;20201;-82
2022/03/01 07:26:03;;;;;;;7.83;7.00;;;;;;;;;;5074000;28;20324;-81
2022/03/01 07:28:30;;;;;;;9.10;8.17;;;;;;;;;;5073766;28;20204;-81
2022/03/01 07:30:59;;;;;;;9.47;7.80;;;;;;;;;;5074573;28;20316;-82
2022/03/01 07:33:26;;;;;;;7.10;6.47;;;;;;;;;;5074706;28;20752;-82
2022/03/01 07:35:53;;;;;;;7.13;6.43;;;;;;;;;;5063161;28;20292;-82
2022/03/01 07:38:21;;;;;;;8.20;7.37;;;;;;;;;;5054945;28;20276;-81
2022/03/01 07:40:48;;;;;;;9.53;7.10;;;;;;;;;;5055022;28;20200;-81
2022/03/01 07:43:15;;;;;;;8.07;5.93;;;;;;;;;;5054617;28;20198;-81
2022/03/01 07:45:43;;;;;;;9.40;7.17;;;;;;;;;;5055339;28;20324;-81
2022/03/01 07:48:12;;;;;;;8.97;7.13;;;;;;;;;;5054637;28;20288;-82
2022/03/01 07:50:40;;;;;;;8.87;6.43;;;;;;;;;;5054905;28;20222;-82
2022/03/01 07:53:07;;;;;;;6.47;5.87;;;;;;;;;;5054789;28;20225;-82
2022/03/01 07:55:35;;;;;;;9.53;6.90;;;;;;;;;;5054546;28;20572;-82
2022/03/01 07:58:02;;;;;;;10.83;8.70;;;;;;;;;;5054826;28;20260;-82
2022/03/01 08:00:29;;;;;;;7.03;6.33;;;;;;;;;;5054542;28;20230;-82
2022/03/01 08:02:57;;;;;;;7.30;6.57;;;;;;;;;;5054378;28;20236;-82
2022/03/01 08:05:26;;;;;;;6.47;5.17;;;;;;;;;;5054815;28;20204;-82
2022/03/01 08:07:53;;;;;;;8.27;6.33;;;;;;;;;;5054429;28;20215;-81
2022/03/01 08:10:20;;;;;;;9.90;7.90;;;;;;;;;;5054726;28;20190;-82
2022/03/01 08:12:48;;;;;;;9.77;8.37;;;;;;;;;;5054540;28;20224;-82
2022/03/01 08:15:15;;;;;;;6.57;5.97;;;;;;;;;;5054747;28;20666;-81
2022/03/01 08:17:50;;;;;;;7.40;6.70;;;;;;;;;;5054466;28;20271;-81
2022/03/01 08:20:17;;;;;;;9.70;8.70;;;;;;;;;;5054140;28;20280;-81
2022/03/01 08:22:46;;;;;;;8.73;7.07;;;;;;;;;;5053809;28;20194;-81
2022/03/01 08:25:14;;;;;;;6.73;6.03;;;;;;;;;;5054489;28;20613;-81
2022/03/01 08:27:41;;;;;;;9.60;7.60;;;;;;;;;;5053982;28;20284;-81
2022/03/01 08:30:10;;;;;;;6.83;6.20;;;;;;;;;;5054200;28;20620;-81
2022/03/01 08:32:37;;;;;;;7.53;6.73;;;;;;;;;;5053903;28;20232;-80
2022/03/01 08:35:05;;;;;;;7.73;6.93;;;;;;;;;;5054984;28;20205;-81
2022/03/01 08:37:33;;;;;;;6.73;6.10;;;;;;;;;;5053964;28;20288;-81
2022/03/01 08:40:02;;;;;;;6.50;5.90;;;;;;;;;;5069343;28;20566;-81
2022/03/01 08:42:29;;;;;;;9.50;8.60;;;;;;;;;;5073645;28;20236;-81
2022/03/01 08:44:56;;;;;;;8.87;7.40;;;;;;;;;;5074044;28;20197;-81
2022/03/01 08:47:26;;;;;;;7.47;6.67;;;;;;;;;;5073762;28;20224;-82
2022/03/01 08:49:54;;;;;;;8.30;7.50;;;;;;;;;;5073728;28;20201;-81
2022/03/01 08:52:21;;;;;;;8.10;7.30;;;;;;;;;;5073427;28;20271;-81
2022/03/01 08:54:48;;;;;;;7.40;6.60;;;;;;;;;;5073401;28;20640;-81
2022/03/01 08:57:17;;;;;;;9.37;7.87;;;;;;;;;;5073213;28;20558;-81
2022/03/01 08:59:45;;;;;;;7.97;7.10;;;;;;;;;;5073501;28;20661;-81
2022/03/01 09:02:12;;;;;;;7.17;6.30;;;;;;;;;;5073257;28;20235;-81
2022/03/01 09:04:39;;;;;;;8.03;6.67;;;;;;;;;;5073363;28;20681;-81
2022/03/01 09:07:07;;;;;;;7.67;6.83;;;;;;;;;;5073441;28;20211;-81
2022/03/01 09:09:34;;;;;;;7.80;7.00;;;;;;;;;;5072949;28;20201;-81
2022/03/01 09:12:01;;;;;;;6.90;6.30;;;;;;;;;;5073352;28;20221;-80
2022/03/01 09:14:30;;;;;;;11.30;7.97;;;;;;;;;;5072989;28;20612;-80
2022/03/01 09:16:57;;;;;;;8.53;7.63;;;;;;;;;;5056581;28;20304;-80
2022/03/01 09:19:24;;;;;;;8.53;6.60;;;;;;;;;;5052974;28;20201;-81
2022/03/01 09:21:52;;;;;;;6.47;5.87;;;;;;;;;;5052842;28;20194;-81
2022/03/01 09:24:19;;;;;;;7.03;6.33;;;;;;;;;;5052858;28;20209;-80
2022/03/01 09:26:46;;;;;;;7.43;6.73;;;;;;;;;;5052541;28;20242;-81
2022/03/01 09:29:14;;;;;;;6.63;5.70;;;;;;;;;;5053035;28;20193;-80
2022/03/01 09:31:43;;;;;;;8.17;7.37;;;;;;;;;;5051997;28;20805;-81
2022/03/01 09:34:10;;;;;;;7.30;6.47;;;;;;;;;;5052744;28;20285;-81
2022/03/01 09:36:37;;;;;;;6.43;5.83;;;;;;;;;;5052396;28;20340;-80
2022/03/01 09:39:06;;;;;;;7.10;6.40;;;;;;;;;;5052403;28;20208;-81
2022/03/01 09:41:34;;;;;;;6.47;5.83;;;;;;;;;;5052307;28;20696;-80
2022/03/01 09:44:01;;;;;;;6.73;5.30;;;;;;;;;;5052435;28;20662;-81
2022/03/01 09:46:28;;;;;;;6.37;5.77;;;;;;;;;;5052260;28;20252;-81
2022/03/01 09:48:57;;;;;;;7.07;6.37;;;;;;;;;;5052266;28;20247;-81
2022/03/01 09:51:25;;;;;;;7.03;6.33;;;;;;;;;;5052348;28;20296;-80
2022/03/01 09:53:54;;;;;;;7.20;6.50;;;;;;;;;;5052343;28;20288;-80
2022/03/01 09:56:21;;;;;;;7.37;6.00;;;;;;;;;;5052459;28;20288;-80
2022/03/01 09:58:51;;;;;;;6.70;6.03;;;;;;;;;;5052642;28;20285;-80
2022/03/01 10:01:19;;;;;;;10.33;7.77;;;;;;;;;;5052113;28;20221;-81
2022/03/01 10:03:48;;;;;;;7.43;6.70;;;;;;;;;;5052155;28;20259;-80
2022/03/01 10:06:19;;;;;;;8.07;7.00;;;;;;;;;;5052058;28;20198;-80
2022/03/01 10:08:53;;;;;;;9.13;7.23;;;;;;;;;;5052567;28;20191;-81
2022/03/01 10:11:20;;;;;;;10.67;8.37;;;;;;;;;;5052259;28;20640;-80
2022/03/01 10:13:48;;;;;;;7.47;6.70;;;;;;;;;;5052163;28;20252;-80
2022/03/01 10:16:17;;;;;;;7.80;6.43;;;;;;;;;;5052161;28;20198;-80
2022/03/01 10:18:50;;;;;;;6.43;5.83;;;;;;;;;;5066547;28;20287;-80
2022/03/01 10:21:20;;;;;;;6.47;5.90;;;;;;;;;;5071710;28;20371;-80
2022/03/01 10:23:50;;;;;;;8.43;7.73;;;;;;;;;;5071983;28;20181;-80
2022/03/01 10:26:20;;;;;;;7.90;6.43;;;;;;;;;;5071771;28;20267;-79
2022/03/01 10:28:48;;;;;;;6.77;6.17;;;;;;;;;;5072097;28;20695;-81
2022/03/01 10:31:17;;;;;;;6.37;5.77;;;;;;;;;;5071557;28;20196;-80
2022/03/01 10:33:56;;;;;;;6.17;5.57;;;;;;;;;;5071844;28;20232;-80
2022/03/01 10:36:26;;;;;;;5.97;5.47;;;;;;;;;;5071789;28;20207;-80
2022/03/01 10:38:57;;;;;;;6.97;6.33;;;;;;;;;;5071958;28;20204;-80
2022/03/01 10:41:26;;;;;;;7.77;6.03;;;;;;;;;;5071336;28;20637;-79
2022/03/01 10:43:57;;;;;;;7.47;6.23;;;;;;;;;;5073678;28;20284;-80
2022/03/01 10:46:24;;;;;;;7.33;6.63;;;;;;;;;;5075948;28;20242;-80
2022/03/01 10:49:05;;;;;;;7.03;6.33;;;;;;;;;;5075862;28;20759;-80
2022/03/01 10:51:34;;;;;;;6.30;5.70;;;;;;;;;;5075378;28;20211;-81
2022/03/01 10:54:01;;;;;;;9.33;5.47;;;;;;;;;;5075801;28;20197;-80
2022/03/01 10:56:37;;;;;;;13.23;6.87;;;;;;;;;;5075554;28;20204;-80
2022/03/01 10:59:05;;;;;;;6.17;5.57;;;;;;;;;;5075999;28;20302;-80
2022/03/01 11:01:32;;;;;;;7.83;6.47;;;;;;;;;;5075725;28;20197;-80
2022/03/01 11:03:59;;;;;;;6.87;6.20;;;;;;;;;;5075891;28;20197;-80
2022/03/01 11:06:27;;;;;;;11.07;9.23;;;;;;;;;;5075631;28;20227;-80
2022/03/01 11:08:57;;;;;;;10.03;8.30;;;;;;;;;;5075688;28;20201;-80
2022/03/01 11:11:26;;;;;;;9.87;8.97;;;;;;;;;;5075354;28;20224;-80
2022/03/01 11:13:53;;;;;;;8.67;7.77;;;;;;;;;;5075096;28;20197;-80
2022/03/01 11:16:33;;;;;;;8.27;7.30;;;;;;;;;;5075610;28;20300;-80
2022/03/01 11:19:38;;;;;;;8.00;6.83;;;;;;;;;;5075261;28;20189;-80
2022/03/01 11:22:06;;;;;;;8.87;6.97;;;;;;;;;;5075057;28;20217;-80
2022/03/01 11:24:35;;;;;;;8.77;7.60;;;;;;;;;;5074927;28;20239;-80
2022/03/01 11:27:07;;;;;;;8.93;8.03;;;;;;;;;;5035169;28;20199;-80
2022/03/01 11:29:38;;;;;;;8.17;6.50;;;;;;;;;;5035192;28;20203;-80
2022/03/01 11:32:12;;;;;;;7.83;6.17;;;;;;;;;;5034884;28;20246;-80
2022/03/01 11:34:40;;;;;;;6.40;5.80;;;;;;;;;;5034940;28;20198;-80
2022/03/01 11:37:14;;;;;;;5.90;5.30;;;;;;;;;;5034891;28;20201;-80
2022/03/01 11:39:43;;;;;;;7.47;6.43;;;;;;;;;;5035189;28;20198;-80
2022/03/01 11:42:14;;;;;;;8.37;7.27;;;;;;;;;;5034784;28;20683;-80
2022/03/01 11:44:42;;;;;;;7.67;6.73;;;;;;;;;;5035242;28;20562;-80
2022/03/01 11:47:13;;;;;;;7.70;6.90;;;;;;;;;;5034588;28;20195;-80
2022/03/01 11:49:41;;;;;;;7.67;6.97;;;;;;;;;;5034911;28;20195;-80
2022/03/01 11:52:18;;;;;;;7.20;6.50;;;;;;;;;;5034680;28;20702;-80
2022/03/01 11:54:48;;;;;;;6.80;6.10;;;;;;;;;;5034612;28;20190;-80
2022/03/01 11:57:17;;;;;;;7.67;6.83;;;;;;;;;;5034492;28;20199;-80
2022/03/01 11:59:45;;;;;;;6.97;6.37;;;;;;;;;;5034959;28;20569;-81
2022/03/01 12:02:12;;;;;;;6.70;5.77;;;;;;;;;;5034362;28;20199;-80
2022/03/01 12:04:49;;;;;;;7.43;5.97;;;;;;;;;;5034612;28;20671;-80
2022/03/01 12:07:21;;;;;;;7.20;6.47;;;;;;;;;;5034199;28;20277;-80
2022/03/01 12:09:57;;;;;;;7.53;6.80;;;;;;;;;;5034407;28;20209;-80
2022/03/01 12:12:36;;;;;;;6.47;5.90;;;;;;;;;;5034174;28;20261;-81
2022/03/01 12:15:06;;;;;;;8.23;6.30;;;;;;;;;;5034192;28;20222;-81
2022/03/01 12:17:41;;;;;;;5.67;5.17;;;;;;;;;;5034155;28;20266;-81
2022/03/01 12:20:11;;;;;;;7.03;5.67;;;;;;;;;;5034332;28;20214;-79
2022/03/01 12:22:38;;;;;;;6.47;5.87;;;;;;;;;;5034079;28;20590;-79
2022/03/01 12:25:08;;;;;;;5.87;5.27;;;;;;;;;;5031813;28;20230;-79
2022/03/01 12:27:36;;;;;;;6.43;5.83;;;;;;;;;;5068259;28;20237;-79
2022/03/01 12:30:05;;;;;;;7.30;6.17;;;;;;;;;;5074178;28;20651;-79
2022/03/01 12:32:34;;;;;;;5.97;5.43;;;;;;;;;;5073927;28;20228;-81
2022/03/01 12:35:02;;;;;;;6.57;5.97;;;;;;;;;;5073963;28;20189;-81
2022/03/01 12:37:30;;;;;;;6.20;5.67;;;;;;;;;;5073520;28;20696;-81
2022/03/01 12:39:57;;;;;;;5.20;4.77;;;;;;;;;;5073896;28;20201;-81
2022/03/01 12:42:30;;;;;;;6.10;5.43;;;;;;;;;;5073976;28;20280;-82
2022/03/01 12:44:57;;;;;;;5.20;4.70;;;;;;;;;;5074337;28;20224;-82
2022/03/01 12:47:25;;;;;;;5.73;5.23;;;;;;;;;;5059970;28;20206;-82
2022/03/01 12:49:52;;;;;;;5.70;5.20;;;;;;;;;;5053667;28;20201;-82
2022/03/01 12:52:21;;;;;;;7.63;6.07;;;;;;;;;;5053271;28;20232;-82
2022/03/01 12:54:49;;;;;;;8.10;6.63;;;;;;;;;;5053836;28;20686;-82
2022/03/01 12:57:17;;;;;;;5.40;4.90;;;;;;;;;;5053287;28;20245;-82
2022/03/01 12:59:47;;;;;;;6.87;5.50;;;;;;;;;;5053539;28;20671;-82
2022/03/01 13:02:16;;;;;;;8.73;7.20;;;;;;;;;;5053434;28;20198;-82
2022/03/01 13:04:49;;;;;;;8.20;7.33;;;;;;;;;;5053465;28;20232;-81
2022/03/01 13:07:18;;;;;;;11.60;8.90;;;;;;;;;;5053112;28;20655;-81
2022/03/01 13:09:45;;;;;;;5.93;5.33;;;;;;;;;;5053023;28;20194;-82
2022/03/01 13:12:12;;;;;;;6.30;5.53;;;;;;;;;;5052977;28;20200;-82
2022/03/01 13:14:40;;;;;;;4.80;4.40;;;;;;;;;;5053388;28;20209;-82
2022/03/01 13:17:08;;;;;;;4.10;3.73;;;;;;;;;;5071642;28;20209;-82
2022/03/01 13:19:36;;;;;;;5.60;5.10;;;;;;;;;;5072690;28;20196;-82
2022/03/01 13:22:06;;;;;;;5.57;4.90;;;;;;;;;;5073070;28;20201;-80
2022/03/01 13:24:35;;;;;;;5.30;4.37;;;;;;;;;;5073511;28;20224;-80
2022/03/01 13:27:06;;;;;;;4.67;4.27;;;;;;;;;;5075400;28;20216;-81
2022/03/01 13:29:35;;;;;;;3.60;3.30;;;;;;;;;;5075383;28;20617;-80
2022/03/01 13:32:05;;;;;;;5.37;4.57;;;;;;;;;;5073892;28;20207;-80
2022/03/01 13:34:35;;;;;;;6.77;6.07;;;;;;;;;;5073463;28;20189;-81
2022/03/01 13:37:08;;;;;;;5.10;4.67;;;;;;;;;;5072656;28;20197;-81
2022/03/01 13:39:37;;;;;;;6.73;6.03;;;;;;;;;;5072824;28;20284;-81
2022/03/01 13:42:05;;;;;;;11.10;7.80;;;;;;;;;;5072480;28;20197;-80
2022/03/01 13:44:34;;;;;;;4.00;3.70;;;;;;;;;;5072936;28;20198;-81
2022/03/01 13:47:04;;;;;;;5.90;4.70;;;;;;;;;;5073238;28;20255;-80
2022/03/01 13:49:36;;;;;;;5.63;5.13;;;;;;;;;;5072959;28;20224;-80
2022/03/01 13:52:11;;;;;;;5.57;5.10;;;;;;;;;;5072148;28;20250;-80
2022/03/01 13:54:40;;;;;;;4.27;3.90;;;;;;;;;;5072540;28;20185;-80
2022/03/01 13:57:08;;;;;;;4.47;4.07;;;;;;;;;;5072259;28;20288;-81
2022/03/01 13:59:35;;;;;;;6.73;4.90;;;;;;;;;;5072373;28;20293;-81
2022/03/01 14:02:03;;;;;;;4.60;4.20;;;;;;;;;;5072167;28;20684;-81
2022/03/01 14:04:32;;;;;;;3.80;3.47;;;;;;;;;;5072351;28;20193;-81
2022/03/01 14:07:01;;;;;;;3.47;3.17;;;;;;;;;;5072195;28;20682;-81
2022/03/01 14:09:28;;;;;;;4.73;4.33;;;;;;;;;;5072261;28;20262;-81
2022/03/01 14:11:56;;;;;;;5.10;4.60;;;;;;;;;;5071897;28;20296;-80
2022/03/01 14:14:24;;;;;;;3.87;3.57;;;;;;;;;;5072062;28;20227;-81
2022/03/01 14:16:52;;;;;;;11.43;7.90;;;;;;;;;;5056921;28;20205;-81
2022/03/01 14:19:19;;;;;;;5.60;5.00;;;;;;;;;;5052158;28;20239;-81
2022/03/01 14:21:47;;;;;;;8.47;6.47;;;;;;;;;;5051780;28;20585;-81
2022/03/01 14:24:17;;;;;;;10.47;7.33;;;;;;;;;;5052048;28;20208;-81
2022/03/01 14:26:44;;;;;;;8.00;6.37;;;;;;;;;;5051919;28;20222;-81
2022/03/01 14:29:13;;;;;;;4.20;3.80;;;;;;;;;;5052153;28;20193;-81
2022/03/01 14:31:42;;;;;;;4.90;4.40;;;;;;;;;;5052095;28;20627;-81
2022/03/01 14:34:10;;;;;;;3.20;2.90;;;;;;;;;;5051647;28;20324;-81
2022/03/01 14:36:37;;;;;;;6.10;4.73;;;;;;;;;;5051958;28;20278;-81
2022/03/01 14:39:04;;;;;;;5.77;3.90;;;;;;;;;;5052012;28;20288;-81
2022/03/01 14:41:33;;;;;;;11.30;6.97;;;;;;;;;;5051648;28;20682;-81
2022/03/01 14:44:01;;;;;;;10.60;7.07;;;;;;;;;;5051603;28;20208;-81
2022/03/01 14:46:28;;;;;;;3.67;3.37;;;;;;;;;;5051618;28;20674;-81